Yuba County Airport Marysville US
ICAO: KMYV
IATA: MYV
Category: Medium
Scheduled Services: No

Elevation: 64 ft
TransAlt. 18000 ft.

Airport Communications:
NORCAL APP/DEP:125.4
ASOS:118.475
RANCHO RDO:122.6
CTAF/UNICOM:123.05

KMYV Zoom In..

If you have problems with the map follow the link
https://www.worldairports.se/pages/airport.php?
ICAO=KMYV

Runways:

(A) RW 05 length 3281 ft width 60 ft
---- / hdg 51

(B) RW 14 length 6006 ft width 150 ft
ILS 110.50 / hdg 141

(C) RW 23 length 3281 ft width 60 ft
---- / hdg 231

(D) RW 32 length 6006 ft width 150 ft
---- / hdg 321

Location; KMYV
Day. 19 / Time. 14.53 Zulu
* Altimeter: 30.23
* Temperature: 03° c. 37.4°f.
* Wind from: 000° Speed 00 kn.
Dewpoint: 03° c.
Visibility: 4 Statute Miles.
Clouds: Overcast 400 ft.
Conditions: Mist.

KMYV 191453Z AUTO 00000KT 4SM BR OVC004 03/03 A3023 RMK AO2 SLP240 T00330028 55003


Wind - Calm.

 
 
jpsmedia worldairports.se 2020   terms of use